Time;durP1;ratioP1;P1;durP2;ratioP2;P2;SDS_P1;SDS_P2;PMS_P1;PMS_P2;Temp;Humidity;BMP_temperature;BMP_pressure;BME280_temperature;BME280_humidity;BME280_pressure;Samples;Min_cycle;Max_cycle;Signal;HPM_P1;HPM_P2
2022/05/09 00:11:56;;;;;;;12.57;4.05;;;11.80;99.90;;;;;;5254887;23;20056;-76
2022/05/09 00:14:21;;;;;;;7.90;3.17;;;11.90;99.90;;;;;;4883144;29;20040;-78
2022/05/09 00:16:50;;;;;;;10.20;3.80;;;11.90;99.90;;;;;;4883185;29;20029;-76
2022/05/09 00:19:17;;;;;;;7.88;3.58;;;11.90;99.90;;;;;;4866201;29;20199;-78
2022/05/09 00:21:43;;;;;;;7.00;2.80;;;11.90;99.90;;;;;;4866453;29;20033;-78
2022/05/09 00:24:14;;;;;;;5.68;2.97;;;11.90;99.90;;;;;;4883149;29;20021;-79
2022/05/09 00:26:41;;;;;;;5.82;2.63;;;12.00;99.90;;;;;;4866381;29;20036;-79
2022/05/09 00:29:08;;;;;;;7.53;3.50;;;12.00;99.90;;;;;;4883226;29;20036;-80
2022/05/09 00:31:34;;;;;;;7.05;3.03;;;12.00;99.90;;;;;;4883189;29;20107;-78
2022/05/09 00:34:02;;;;;;;5.82;2.85;;;12.00;99.90;;;;;;4866125;29;20371;-77
2022/05/09 00:36:27;;;;;;;8.73;3.33;;;12.00;99.90;;;;;;4882829;29;20041;-75
2022/05/09 00:38:53;;;;;;;10.20;3.78;;;12.10;99.90;;;;;;4880120;29;20052;-78
2022/05/09 01:11:25;;;;;;;11.90;3.03;;;12.00;99.90;;;;;;5717057;23;20097;-77
2022/05/09 01:13:56;;;;;;;6.95;3.08;;;12.00;99.90;;;;;;4887189;29;20060;-76
2022/05/09 01:16:22;;;;;;;6.32;3.33;;;12.10;99.90;;;;;;4889622;29;20110;-76
2022/05/09 01:18:48;;;;;;;6.88;2.85;;;12.10;99.90;;;;;;4887555;29;20683;-76
2022/05/09 01:21:32;;;;;;;8.82;3.15;;;12.10;99.90;;;;;;4887436;29;20363;-76
2022/05/09 01:23:58;;;;;;;10.35;4.18;;;12.10;99.90;;;;;;4870382;29;20028;-77
2022/05/09 01:26:24;;;;;;;9.25;3.70;;;12.10;99.90;;;;;;4870853;29;20033;-76
2022/05/09 01:28:50;;;;;;;7.85;3.10;;;12.10;99.90;;;;;;4871132;29;20578;-78
2022/05/09 01:31:18;;;;;;;8.55;3.72;;;12.10;99.90;;;;;;4871185;29;20025;-76
2022/05/09 01:33:50;;;;;;;8.20;3.05;;;12.10;99.90;;;;;;4886941;29;20036;-77
2022/05/09 01:36:19;;;;;;;6.80;3.25;;;12.10;99.90;;;;;;4869807;29;20779;-77
2022/05/09 01:39:06;;;;;;;8.55;3.53;;;12.10;99.90;;;;;;4886959;29;20172;-78
2022/05/09 01:41:48;;;;;;;7.68;3.10;;;12.10;99.90;;;;;;4885649;29;20052;-77
2022/05/09 01:44:14;;;;;;;7.57;3.22;;;12.00;99.90;;;;;;4886229;29;20031;-81
2022/05/09 01:49:31;;;;;;;11.10;3.72;;;12.00;99.90;;;;;;4885991;29;20143;-78
2022/05/09 01:51:59;;;;;;;10.07;4.00;;;12.00;99.90;;;;;;4868456;29;20712;-76
2022/05/09 01:54:26;;;;;;;7.88;3.38;;;12.00;99.90;;;;;;4868290;29;20063;-77
2022/05/09 01:56:54;;;;;;;7.78;3.42;;;12.00;99.90;;;;;;4867359;29;20723;-76
2022/05/09 01:59:20;;;;;;;10.70;3.28;;;12.00;99.90;;;;;;4885631;29;20064;-75
2022/05/09 03:58:40;;;;;;;10.43;4.50;;;13.50;99.90;;;;;;4865567;29;20065;-76
2022/05/09 04:43:41;;;;;;;13.85;6.43;;;12.10;99.90;;;;;;5125217;23;20096;-78
2022/05/09 04:46:06;;;;;;;10.13;5.63;;;12.10;99.90;;;;;;4869937;29;20025;-77
2022/05/09 04:48:33;;;;;;;11.48;5.47;;;12.10;99.90;;;;;;4870799;29;20025;-77
2022/05/09 04:50:59;;;;;;;13.50;7.35;;;12.00;99.90;;;;;;4852650;29;20025;-79
2022/05/09 04:53:25;;;;;;;11.07;6.10;;;12.10;99.90;;;;;;4852500;29;20120;-77
2022/05/09 04:55:55;;;;;;;10.00;4.53;;;12.00;99.90;;;;;;4867833;29;20025;-77
2022/05/09 04:58:21;;;;;;;9.00;4.28;;;12.10;99.90;;;;;;4851915;29;20035;-76
2022/05/09 05:00:50;;;;;;;10.90;5.70;;;12.10;99.90;;;;;;4851719;29;20045;-76
2022/05/09 05:03:18;;;;;;;10.07;4.82;;;12.80;99.90;;;;;;4868313;29;20026;-77
2022/05/09 05:05:44;;;;;;;14.30;5.68;;;12.10;99.90;;;;;;4867980;29;20108;-76
2022/05/09 05:13:21;;;;;;;13.10;4.93;;;12.10;99.90;;;;;;5335919;23;20120;-77
2022/05/09 05:15:48;;;;;;;11.18;5.13;;;12.10;99.90;;;;;;4886191;29;20048;-79
2022/05/09 05:18:23;;;;;;;13.32;6.55;;;12.10;99.90;;;;;;4886671;29;20032;-79
2022/05/09 05:20:49;;;;;;;14.95;5.97;;;12.10;99.90;;;;;;4886049;29;20111;-75
2022/05/09 05:23:16;;;;;;;18.48;6.78;;;12.20;99.90;;;;;;4869426;29;20127;-77
2022/05/09 05:25:44;;;;;;;12.75;7.18;;;12.30;99.90;;;;;;4885619;29;20028;-77
2022/05/09 05:28:11;;;;;;;16.42;7.43;;;12.30;99.90;;;;;;4867972;29;20041;-77
2022/05/09 05:30:37;;;;;;;12.05;6.43;;;12.40;99.90;;;;;;4885668;29;20040;-75
2022/05/09 05:33:04;;;;;;;15.25;5.90;;;12.40;99.90;;;;;;4885482;29;20016;-77
2022/05/09 05:35:30;;;;;;;11.25;5.68;;;12.50;99.90;;;;;;4868575;29;20025;-77
2022/05/09 05:37:56;;;;;;;17.75;5.70;;;12.50;99.90;;;;;;4885868;29;20021;-77
2022/05/09 05:40:22;;;;;;;13.23;5.78;;;12.60;99.90;;;;;;4885294;29;20028;-77
2022/05/09 05:42:49;;;;;;;17.27;7.72;;;12.60;99.90;;;;;;4868417;29;20564;-76
2022/05/09 05:45:19;;;;;;;12.73;5.60;;;12.60;99.90;;;;;;4885890;29;20096;-77
2022/05/09 05:47:46;;;;;;;12.48;5.53;;;12.60;99.90;;;;;;4886280;29;20017;-76
2022/05/09 05:50:16;;;;;;;14.43;5.72;;;12.60;99.90;;;;;;4869089;29;20123;-78
2022/05/09 05:52:42;;;;;;;16.48;7.00;;;12.70;99.90;;;;;;4886513;29;20020;-77
2022/05/09 05:55:08;;;;;;;13.13;5.78;;;12.60;99.90;;;;;;4887310;29;20024;-78
2022/05/09 05:57:38;;;;;;;13.55;6.65;;;12.70;99.90;;;;;;4904286;29;20052;-77
2022/05/09 06:00:11;;;;;;;12.68;5.53;;;12.80;99.90;;;;;;4888253;29;20067;-78
2022/05/09 06:02:38;;;;;;;;;;;12.90;99.90;;;;;;4884798;29;20516;-77
2022/05/09 06:05:08;;;;;;;16.50;8.70;;;13.10;99.90;;;;;;4885755;29;19915;-78
2022/05/09 06:07:34;;;;;;;13.88;6.63;;;13.10;99.90;;;;;;4885291;29;20678;-78
2022/05/09 06:09:59;;;;;;;15.02;6.57;;;13.20;99.90;;;;;;4886282;29;20091;-76
2022/05/09 06:12:25;;;;;;;17.35;7.72;;;13.30;99.90;;;;;;4886176;29;20448;-76
2022/05/09 06:17:39;;;;;;;21.00;9.27;;;13.40;99.90;;;;;;4886022;29;20042;-74
2022/05/09 06:49:57;;;;;;;16.60;7.97;;;14.60;99.90;;;;;;4811559;29;20691;-75
2022/05/09 06:59:19;;;;;;;16.75;7.05;;;13.80;99.90;;;;;;4824787;29;20048;-75
2022/05/09 07:14:30;;;;;;;43.42;19.05;;;14.40;99.90;;;;;;5146736;23;20061;-77
2022/05/09 07:16:56;;;;;;;29.15;12.93;;;14.90;99.90;;;;;;4883065;29;20020;-79
2022/05/09 07:19:21;;;;;;;29.88;14.55;;;14.60;99.90;;;;;;4883243;29;20116;-80
2022/05/09 07:21:47;;;;;;;18.92;10.82;;;14.80;99.90;;;;;;4884571;29;20039;-78
2022/05/09 07:24:13;;;;;;;19.98;7.90;;;14.80;99.90;;;;;;4901383;29;20032;-76
2022/05/09 07:26:39;;;;;;;14.75;6.65;;;14.90;99.60;;;;;;4901736;29;20072;-76
2022/05/09 07:29:05;;;;;;;22.85;10.05;;;14.90;99.50;;;;;;4901562;29;20137;-75
2022/05/09 07:31:31;;;;;;;18.83;8.95;;;15.00;99.40;;;;;;4901314;29;20099;-76
2022/05/09 07:33:57;;;;;;;18.35;9.85;;;15.00;99.60;;;;;;4901590;29;20287;-75
2022/05/09 07:36:23;;;;;;;12.07;6.10;;;15.00;99.70;;;;;;4901170;29;20535;-79
2022/05/09 07:38:48;;;;;;;20.60;6.93;;;15.20;99.30;;;;;;4901470;29;20029;-77
2022/05/09 07:41:14;;;;;;;13.43;7.50;;;15.40;98.80;;;;;;4901484;29;20720;-76
2022/05/09 07:43:40;;;;;;;19.33;9.02;;;15.50;98.80;;;;;;4901544;29;20028;-75
2022/05/09 07:46:06;;;;;;;13.23;6.47;;;15.60;97.80;;;;;;4884471;29;20112;-78
2022/05/09 07:48:31;;;;;;;20.15;8.70;;;15.60;98.20;;;;;;4884075;29;20047;-76
2022/05/09 07:50:59;;;;;;;17.25;6.93;;;15.80;98.00;;;;;;4883900;29;20028;-76
2022/05/09 07:53:30;;;;;;;19.45;8.32;;;16.00;97.10;;;;;;4883401;29;20024;-78
2022/05/09 07:55:56;;;;;;;16.83;8.85;;;16.00;97.00;;;;;;4884410;29;20550;-75
2022/05/09 07:58:23;;;;;;;16.05;7.22;;;16.20;96.80;;;;;;4901499;29;20663;-75
2022/05/09 08:00:49;;;;;;;13.13;6.50;;;16.30;96.20;;;;;;4884150;29;20047;-76
2022/05/09 08:03:21;;;;;;;17.23;8.45;;;16.50;96.20;;;;;;4884225;29;20028;-76
2022/05/09 08:05:47;;;;;;;14.23;5.95;;;16.60;95.60;;;;;;4901396;29;20035;-75
2022/05/09 08:08:13;;;;;;;13.70;6.72;;;16.70;95.80;;;;;;4901391;29;20020;-75
2022/05/09 08:10:40;;;;;;;18.95;9.98;;;17.10;95.20;;;;;;4900961;29;20063;-77
2022/05/09 08:13:07;;;;;;;21.30;10.93;;;17.40;94.80;;;;;;4900644;29;20111;-75
2022/05/09 08:15:34;;;;;;;22.38;11.05;;;17.30;94.70;;;;;;4901472;29;20019;-75
2022/05/09 08:18:01;;;;;;;20.35;9.75;;;17.50;94.60;;;;;;4884226;29;20115;-77
2022/05/09 08:20:30;;;;;;;17.75;9.93;;;17.60;94.40;;;;;;4884387;29;20148;-74
2022/05/09 08:23:11;;;;;;;15.20;7.18;;;17.70;94.10;;;;;;4901160;29;20028;-77
2022/05/09 08:25:38;;;;;;;19.58;9.32;;;17.80;93.60;;;;;;4883882;29;20040;-77
2022/05/09 08:28:05;;;;;;;25.88;9.90;;;17.80;93.60;;;;;;4901254;29;20536;-76
2022/05/09 08:30:33;;;;;;;20.40;10.65;;;17.40;94.10;;;;;;4884085;29;20070;-78
2022/05/09 08:33:10;;;;;;;17.27;10.25;;;17.00;94.70;;;;;;4900993;29;20024;-77
2022/05/09 08:35:35;;;;;;;20.17;9.95;;;17.10;95.10;;;;;;4901020;29;20021;-75
2022/05/09 08:38:01;;;;;;;19.88;8.85;;;16.90;95.30;;;;;;4900861;29;20024;-76
2022/05/09 08:40:36;;;;;;;17.38;10.02;;;17.00;95.50;;;;;;4883582;29;20099;-75
2022/05/09 08:43:28;;;;;;;16.80;9.55;;;16.80;95.70;;;;;;4901190;29;20032;-78
2022/05/09 08:46:38;;;;;;;22.92;11.60;;;16.80;96.10;;;;;;4902267;29;20055;-75
2022/05/09 08:49:37;;;;;;;20.85;9.88;;;16.90;96.00;;;;;;4824155;29;20672;-74
2022/05/09 08:52:36;;;;;;;18.38;8.93;;;16.90;95.80;;;;;;4824341;29;20074;-76
2022/05/09 08:55:11;;;;;;;21.73;10.40;;;17.00;95.70;;;;;;4824496;29;20049;-75
2022/05/09 08:57:42;;;;;;;22.38;9.73;;;17.20;95.40;;;;;;4808546;29;20276;-78
2022/05/09 09:00:16;;;;;;;19.75;9.15;;;17.50;95.20;;;;;;4823970;29;20042;-76
2022/05/09 09:03:07;;;;;;;25.95;9.90;;;17.50;94.90;;;;;;4824070;29;20046;-74
2022/05/09 09:05:36;;;;;;;22.20;9.50;;;17.30;95.10;;;;;;4824881;29;20092;-80
2022/05/09 09:08:14;;;;;;;21.35;9.95;;;17.20;95.70;;;;;;4827776;29;20037;-75
2022/05/09 10:46:30;;;;;;;16.40;8.20;;;20.80;88.80;;;;;;4870208;29;20603;-75
2022/05/09 11:01:04;;;;;;;22.17;11.77;;;23.40;85.40;;;;;;4878055;29;20084;-79
2022/05/09 11:03:35;;;;;;;24.80;11.50;;;20.90;85.70;;;;;;4865236;29;20478;-76
2022/05/09 11:06:13;;;;;;;20.35;11.10;;;21.10;86.30;;;;;;4850187;29;20743;-75
2022/05/09 11:08:56;;;;;;;20.48;10.40;;;21.40;86.60;;;;;;4867499;29;20053;-76
2022/05/09 11:11:30;;;;;;;20.75;11.32;;;21.30;86.30;;;;;;4865785;29;20025;-76
2022/05/09 11:14:02;;;;;;;22.05;11.10;;;21.60;85.80;;;;;;4867529;29;20040;-76
2022/05/09 11:16:40;;;;;;;22.35;11.68;;;21.50;85.90;;;;;;4866124;29;20046;-75
2022/05/09 11:19:18;;;;;;;20.02;11.00;;;21.80;85.70;;;;;;4848803;29;20108;-76
2022/05/09 11:21:49;;;;;;;20.70;9.50;;;21.90;85.40;;;;;;4864990;29;20041;-78
2022/05/09 11:24:39;;;;;;;22.02;12.13;;;22.10;84.40;;;;;;4864463;29;20025;-76
2022/05/09 11:27:19;;;;;;;19.98;9.98;;;22.00;84.20;;;;;;4864667;29;20572;-75
2022/05/09 11:29:57;;;;;;;22.33;11.52;;;22.00;83.80;;;;;;4847627;29;20640;-76
2022/05/09 11:32:37;;;;;;;19.83;9.82;;;21.90;85.20;;;;;;4864376;29;20060;-75
2022/05/09 11:35:07;;;;;;;19.83;8.32;;;22.30;83.10;;;;;;4848205;29;20204;-76
2022/05/09 11:37:42;;;;;;;23.08;10.65;;;22.80;84.00;;;;;;4847579;29;20060;-76
2022/05/09 11:40:55;;;;;;;24.17;10.68;;;23.10;81.60;;;;;;4863625;29;20040;-76
2022/05/09 11:43:48;;;;;;;20.30;11.73;;;23.50;78.50;;;;;;4791064;29;20038;-78
2022/05/09 12:15:53;;;;;;;17.73;8.85;;;27.40;61.60;;;;;;5299678;23;20481;-75
2022/05/09 12:18:22;;;;;;;13.43;7.07;;;27.70;57.40;;;;;;4882792;29;20060;-79
2022/05/09 12:20:48;;;;;;;17.65;9.65;;;28.40;57.90;;;;;;4883017;29;20568;-77
2022/05/09 12:23:34;;;;;;;14.90;8.45;;;28.70;56.40;;;;;;4882845;29;20028;-79
2022/05/09 12:26:05;;;;;;;15.55;8.15;;;28.80;54.20;;;;;;4805668;29;20030;-79
2022/05/09 12:28:35;;;;;;;16.48;7.13;;;28.90;52.80;;;;;;4805875;29;20138;-80
2022/05/09 12:31:04;;;;;;;13.95;7.85;;;29.00;54.00;;;;;;4806041;29;20423;-78
2022/05/09 12:33:36;;;;;;;13.63;8.07;;;29.10;52.90;;;;;;4791053;29;20172;-75
2022/05/09 12:36:22;;;;;;;16.07;7.03;;;28.90;53.50;;;;;;4806410;29;20061;-79
2022/05/09 12:38:53;;;;;;;16.83;8.45;;;29.50;50.90;;;;;;4806401;29;21095;-78
2022/05/09 12:41:25;;;;;;;13.80;7.45;;;29.30;52.10;;;;;;4808567;29;20073;-78
2022/05/09 12:44:07;;;;;;;14.98;8.18;;;28.80;52.50;;;;;;4809307;29;20157;-75
2022/05/09 12:46:37;;;;;;;13.40;7.75;;;28.80;52.70;;;;;;4809652;29;20230;-77
2022/05/09 12:49:06;;;;;;;12.10;6.50;;;29.40;51.90;;;;;;4809473;29;20030;-76
2022/05/09 12:51:40;;;;;;;15.80;7.03;;;29.80;52.10;;;;;;4809373;29;20053;-76
2022/05/09 12:54:09;;;;;;;16.58;6.95;;;30.30;49.60;;;;;;4808972;29;20038;-77
2022/05/09 12:56:39;;;;;;;12.52;5.95;;;30.50;49.00;;;;;;4794115;29;20113;-76
2022/05/09 12:59:08;;;;;;;11.20;5.90;;;30.90;50.10;;;;;;4808998;29;20109;-77
2022/05/09 13:01:35;;;;;;;12.93;6.93;;;30.20;47.40;;;;;;4808842;29;20081;-77
2022/05/09 13:04:06;;;;;;;12.63;6.43;;;30.40;47.70;;;;;;4874732;29;20638;-78
2022/05/09 13:06:37;;;;;;;11.75;6.10;;;30.40;45.90;;;;;;4885975;29;20033;-77
2022/05/09 13:09:18;;;;;;;13.88;4.80;;;31.00;45.20;;;;;;4868860;29;20637;-76
2022/05/09 13:11:49;;;;;;;10.10;5.10;;;31.10;43.80;;;;;;4885699;29;20057;-80
2022/05/09 13:14:23;;;;;;;12.88;5.45;;;30.20;44.50;;;;;;4886116;29;20190;-76
2022/05/09 13:17:00;;;;;;;10.82;4.95;;;29.90;44.70;;;;;;4886024;29;20139;-78
2022/05/09 13:19:27;;;;;;;12.27;5.70;;;30.20;44.00;;;;;;4885388;29;20025;-77
2022/05/09 13:21:53;;;;;;;11.10;5.88;;;30.60;43.70;;;;;;4868829;29;20036;-76
2022/05/09 13:24:29;;;;;;;10.07;5.20;;;30.00;46.00;;;;;;4885394;29;20029;-79
2022/05/09 13:27:06;;;;;;;10.07;5.38;;;30.40;45.00;;;;;;4885439;29;20021;-77
2022/05/09 13:29:39;;;;;;;12.15;5.20;;;31.10;44.10;;;;;;4868223;29;20594;-78
2022/05/09 13:32:06;;;;;;;12.52;5.10;;;30.90;42.70;;;;;;4884945;29;20021;-78
2022/05/09 13:34:40;;;;;;;11.30;4.88;;;31.10;41.10;;;;;;4885458;29;20051;-79
2022/05/09 13:37:10;;;;;;;12.00;4.40;;;31.30;41.30;;;;;;4885600;29;20212;-77
2022/05/09 13:39:39;;;;;;;8.63;3.97;;;31.30;40.80;;;;;;4884838;29;20024;-79
2022/05/09 13:42:25;;;;;;;11.00;4.78;;;30.90;42.10;;;;;;4885506;29;20025;-79
2022/05/09 13:44:53;;;;;;;11.13;5.25;;;30.60;43.20;;;;;;4868219;29;20048;-77
2022/05/09 13:47:22;;;;;;;9.50;4.18;;;31.50;40.60;;;;;;4885368;29;20025;-80
2022/05/09 13:49:58;;;;;;;9.00;3.67;;;31.70;39.70;;;;;;4868351;29;20051;-77
2022/05/09 13:52:44;;;;;;;9.93;3.70;;;31.10;41.00;;;;;;4866937;29;20598;-76
2022/05/09 13:55:12;;;;;;;6.28;2.88;;;30.70;40.80;;;;;;4884549;29;20057;-77
2022/05/09 13:57:40;;;;;;;5.50;2.08;;;30.40;41.10;;;;;;4885357;29;20068;-80
2022/05/09 14:00:19;;;;;;;5.15;2.05;;;30.10;41.20;;;;;;4885223;29;20039;-79
2022/05/09 14:02:49;;;;;;;6.90;2.72;;;29.60;40.90;;;;;;4885220;29;20117;-80
2022/05/09 14:05:23;;;;;;;7.55;2.22;;;29.20;39.80;;;;;;4868133;29;20036;-77
2022/05/09 14:07:51;;;;;;;7.88;2.42;;;28.50;40.10;;;;;;4884803;29;20037;-80
2022/05/09 14:10:36;;;;;;;11.18;2.40;;;28.00;40.80;;;;;;4867825;29;20116;-80
2022/05/09 14:13:42;;;;;;;4.10;2.00;;;27.60;41.50;;;;;;4885130;29;20017;-78
2022/05/09 14:16:11;;;;;;;9.45;2.22;;;27.40;42.20;;;;;;4864186;29;20053;-77
2022/05/09 14:18:39;;;;;;;4.35;2.17;;;27.70;41.50;;;;;;4877689;29;20032;-77
2022/05/09 14:21:14;;;;;;;4.80;1.73;;;28.40;41.30;;;;;;4884531;29;20168;-79
2022/05/09 14:23:47;;;;;;;6.22;1.95;;;29.00;38.90;;;;;;4867568;29;20678;-80
2022/05/09 14:31:58;;;;;;;4.63;2.00;;;31.50;36.60;;;;;;4884805;29;20039;-80
2022/05/09 14:34:26;;;;;;;5.40;2.08;;;32.70;35.70;;;;;;4884624;29;20033;-79
2022/05/09 14:37:20;;;;;;;6.25;1.83;;;32.90;35.90;;;;;;4884504;29;20401;-79
2022/05/09 14:39:56;;;;;;;3.90;1.70;;;33.40;33.90;;;;;;4868326;29;20032;-80
2022/05/09 14:42:21;;;;;;;5.93;2.17;;;33.80;34.10;;;;;;4884928;29;20678;-81
2022/05/09 14:45:02;;;;;;;4.90;2.03;;;33.80;33.70;;;;;;4884805;29;20129;-79
2022/05/09 14:47:33;;;;;;;6.22;1.90;;;34.30;33.20;;;;;;4884901;29;20065;-80
2022/05/09 14:50:06;;;;;;;6.30;2.42;;;34.00;33.90;;;;;;4884197;29;20032;-78
2022/05/09 14:52:47;;;;;;;6.45;2.30;;;33.40;34.10;;;;;;4867685;29;20024;-81
2022/05/09 14:58:17;;;;;;;5.60;2.58;;;32.00;35.40;;;;;;4884891;29;20031;-79
2022/05/09 15:01:12;;;;;;;7.43;2.47;;;31.70;36.10;;;;;;4884310;29;20039;-77
2022/05/09 15:03:44;;;;;;;8.07;2.78;;;32.00;36.40;;;;;;4873403;29;20201;-81
2022/05/09 15:06:11;;;;;;;8.18;2.72;;;32.00;36.00;;;;;;4884722;29;20217;-82
2022/05/09 15:08:38;;;;;;;4.97;2.40;;;32.40;36.30;;;;;;4884219;29;20028;-80
2022/05/09 15:11:11;;;;;;;7.78;2.67;;;32.80;35.90;;;;;;4884022;29;20078;-80
2022/05/09 15:13:38;;;;;;;6.13;2.47;;;32.20;35.20;;;;;;4883998;29;20024;-81
2022/05/09 15:16:10;;;;;;;8.55;2.72;;;31.70;35.80;;;;;;4884228;29;20076;-79
2022/05/09 15:18:40;;;;;;;7.80;2.78;;;31.00;37.00;;;;;;4883923;29;20025;-83
2022/05/09 15:21:06;;;;;;;5.85;2.55;;;30.40;37.30;;;;;;4883425;29;20041;-82
2022/05/09 15:23:32;;;;;;;5.60;3.03;;;29.50;38.00;;;;;;4883718;29;20084;-81
2022/05/09 15:25:58;;;;;;;6.82;2.58;;;28.50;38.70;;;;;;4883700;29;20050;-80
2022/05/09 15:28:26;;;;;;;6.72;2.63;;;28.10;40.20;;;;;;4883552;29;20080;-82
2022/05/09 15:30:54;;;;;;;5.93;2.47;;;27.50;40.80;;;;;;4883115;29;20348;-81
2022/05/09 15:33:20;;;;;;;5.85;2.38;;;27.20;41.00;;;;;;4883507;29;20654;-78
2022/05/09 15:35:49;;;;;;;6.88;2.55;;;27.20;41.00;;;;;;4883168;29;20028;-79
2022/05/09 15:38:15;;;;;;;4.10;1.75;;;27.30;41.60;;;;;;4883358;29;20107;-81
2022/05/09 15:40:54;;;;;;;6.82;2.53;;;27.20;40.90;;;;;;4865638;29;20044;-81
2022/05/09 15:43:25;;;;;;;6.10;2.45;;;27.40;39.60;;;;;;4883963;29;20092;-79
2022/05/09 15:45:53;;;;;;;8.13;2.50;;;26.80;40.20;;;;;;4887023;29;20040;-78
2022/05/09 15:48:19;;;;;;;3.78;2.05;;;26.30;39.80;;;;;;4904125;29;20028;-77
2022/05/09 15:50:45;;;;;;;6.47;2.63;;;26.00;40.30;;;;;;4902118;29;20025;-78
2022/05/09 15:53:12;;;;;;;6.80;2.03;;;26.10;39.20;;;;;;4878956;29;20227;-78
2022/05/09 15:55:42;;;;;;;4.57;2.15;;;26.40;39.90;;;;;;4883712;29;20170;-78
2022/05/09 15:58:08;;;;;;;6.25;2.75;;;27.10;39.80;;;;;;4883681;29;20036;-82
2022/05/09 16:00:34;;;;;;;7.00;2.00;;;27.90;40.40;;;;;;4866469;29;20033;-79
2022/05/09 16:03:07;;;;;;;6.18;2.40;;;28.30;37.30;;;;;;4883943;29;20188;-77
2022/05/09 16:13:46;;;;;;;6.63;2.53;;;29.60;36.50;;;;;;4807971;29;20536;-77
2022/05/09 16:16:21;;;;;;;7.03;2.13;;;29.80;36.20;;;;;;4806012;29;20161;-78
2022/05/09 16:18:49;;;;;;;5.32;2.60;;;30.00;36.60;;;;;;4807132;29;20114;-78
2022/05/09 16:21:16;;;;;;;6.30;1.92;;;29.60;36.70;;;;;;4806873;29;20624;-79
2022/05/09 16:23:44;;;;;;;6.38;2.08;;;30.60;37.40;;;;;;4806387;29;20100;-81
2022/05/09 16:26:12;;;;;;;6.00;2.60;;;29.20;37.10;;;;;;4806272;29;20057;-80
2022/05/09 16:28:40;;;;;;;7.03;2.45;;;28.10;36.90;;;;;;4806677;29;20150;-79
2022/05/09 16:31:05;;;;;;;8.93;3.00;;;27.50;38.60;;;;;;4806288;29;20053;-76
2022/05/09 16:33:31;;;;;;;7.88;3.20;;;26.90;39.10;;;;;;4806267;29;20539;-77
2022/05/09 16:36:00;;;;;;;8.13;2.75;;;25.90;40.80;;;;;;4806351;29;20094;-82
2022/05/09 16:38:29;;;;;;;6.90;2.53;;;25.00;43.10;;;;;;4806340;29;20034;-79
2022/05/09 16:40:57;;;;;;;7.10;2.42;;;23.80;46.40;;;;;;4806262;29;20812;-76
2022/05/09 16:43:26;;;;;;;6.72;2.30;;;23.40;47.40;;;;;;4806810;29;20069;-78
2022/05/09 16:45:55;;;;;;;9.05;2.80;;;22.60;48.20;;;;;;4861273;29;20068;-81
2022/05/09 16:48:24;;;;;;;8.40;2.75;;;22.00;50.30;;;;;;4882979;29;20115;-80
2022/05/09 16:51:00;;;;;;;9.75;2.78;;;21.50;52.00;;;;;;4882818;29;20024;-83
2022/05/09 16:53:28;;;;;;;9.70;2.63;;;21.20;53.40;;;;;;4882577;29;20728;-82
2022/05/09 16:55:56;;;;;;;12.95;3.17;;;20.70;55.50;;;;;;4883018;29;20033;-79
2022/05/09 16:58:24;;;;;;;5.85;2.92;;;20.50;56.90;;;;;;4882785;29;20021;-78
2022/05/09 17:00:50;;;;;;;11.35;2.70;;;20.30;57.20;;;;;;4883012;29;20037;-77
2022/05/09 17:03:17;;;;;;;5.13;1.90;;;20.20;57.40;;;;;;4883154;29;20028;-81
2022/05/09 17:05:43;;;;;;;11.10;2.60;;;20.10;57.20;;;;;;4883335;29;20032;-79
2022/05/09 17:08:09;;;;;;;6.80;2.63;;;20.80;60.90;;;;;;4883552;29;20640;-77
2022/05/09 17:10:55;;;;;;;6.65;2.70;;;18.90;60.50;;;;;;4882621;29;20031;-79
2022/05/09 17:13:27;;;;;;;12.25;3.25;;;18.80;62.00;;;;;;4883256;29;20033;-74
2022/05/09 17:15:56;;;;;;;9.25;2.83;;;18.80;61.80;;;;;;4883414;29;20242;-77
2022/05/09 17:18:22;;;;;;;10.10;2.72;;;18.50;61.90;;;;;;4882581;29;20299;-75
2022/05/09 17:20:47;;;;;;;8.60;2.38;;;18.50;62.30;;;;;;4882951;29;20487;-77
2022/05/09 17:23:13;;;;;;;5.13;1.65;;;18.50;62.50;;;;;;4865690;29;20075;-79
2022/05/09 17:26:14;;;;;;;5.55;2.03;;;18.50;63.00;;;;;;4908180;24;20073;-80
2022/05/09 17:28:41;;;;;;;5.93;2.40;;;19.70;62.90;;;;;;4889268;23;20080;-75
2022/05/09 17:33:37;;;;;;;6.75;3.10;;;18.20;62.80;;;;;;4880650;23;20559;-74
2022/05/09 17:38:52;;;;;;;5.22;2.17;;;17.90;64.60;;;;;;4885172;29;20113;-75
2022/05/09 17:41:29;;;;;;;8.50;2.97;;;18.00;64.40;;;;;;4868582;29;20036;-76
2022/05/09 17:43:58;;;;;;;11.23;2.47;;;17.80;65.80;;;;;;4885120;29;20249;-76
2022/05/09 17:46:34;;;;;;;9.82;3.60;;;17.80;67.10;;;;;;4885001;29;20137;-81
2022/05/09 17:49:00;;;;;;;6.90;2.70;;;17.70;67.80;;;;;;4868404;29;20036;-81
2022/05/09 17:51:31;;;;;;;9.27;2.65;;;17.60;67.90;;;;;;4885458;29;20033;-78
2022/05/09 17:53:58;;;;;;;9.27;3.72;;;17.40;69.00;;;;;;4884882;29;20758;-81
2022/05/09 17:56:28;;;;;;;9.95;3.63;;;17.30;69.40;;;;;;4885090;29;20101;-82
2022/05/09 17:59:11;;;;;;;10.63;3.97;;;17.30;69.60;;;;;;4885264;29;20678;-75
2022/05/09 18:01:39;;;;;;;8.52;3.10;;;17.20;70.80;;;;;;4884619;29;20116;-75
2022/05/09 18:04:06;;;;;;;9.95;2.45;;;17.20;71.90;;;;;;4867814;29;20025;-77
2022/05/09 18:06:33;;;;;;;4.70;1.80;;;16.90;72.10;;;;;;4884381;29;20119;-82
2022/05/09 18:08:59;;;;;;;5.40;2.20;;;17.00;73.70;;;;;;4884935;29;20061;-76
2022/05/09 18:11:26;;;;;;;11.23;2.35;;;17.00;74.20;;;;;;4867038;29;20120;-79
2022/05/09 18:13:54;;;;;;;5.28;2.10;;;16.80;75.90;;;;;;4884665;29;20037;-78
2022/05/09 18:16:22;;;;;;;7.72;2.92;;;16.80;78.10;;;;;;4884237;29;20021;-75
2022/05/09 18:18:51;;;;;;;8.57;2.35;;;16.70;79.50;;;;;;4885027;29;20641;-82
2022/05/09 18:21:23;;;;;;;6.60;2.17;;;16.40;82.90;;;;;;4867661;29;20619;-77
2022/05/09 18:23:57;;;;;;;9.63;2.67;;;13.60;82.30;;;;;;4884489;29;20017;-77
2022/05/09 18:26:26;;;;;;;5.95;2.42;;;16.40;85.70;;;;;;4867353;29;20021;-78
2022/05/09 18:28:52;;;;;;;5.97;1.95;;;16.30;88.10;;;;;;4884561;29;20033;-77
2022/05/09 18:31:18;;;;;;;6.22;2.17;;;16.30;88.30;;;;;;4884038;29;20044;-77
2022/05/09 18:33:45;;;;;;;7.35;2.63;;;17.00;89.20;;;;;;4866913;29;20679;-76
2022/05/09 18:36:14;;;;;;;10.57;3.90;;;16.20;90.60;;;;;;4884282;29;20036;-76
2022/05/09 18:38:43;;;;;;;10.85;3.20;;;16.20;90.30;;;;;;4883242;29;20020;-76
2022/05/09 18:41:12;;;;;;;12.07;3.53;;;16.10;90.10;;;;;;4883611;29;20165;-75
2022/05/09 18:43:39;;;;;;;10.43;3.40;;;16.10;90.70;;;;;;4884123;29;20725;-77
2022/05/09 18:46:06;;;;;;;12.43;4.57;;;16.10;91.10;;;;;;4883627;29;20027;-78
2022/05/09 18:48:32;;;;;;;12.43;4.63;;;16.10;91.00;;;;;;4883428;29;20033;-78
2022/05/09 18:53:44;;;;;;;11.38;4.43;;;16.00;90.90;;;;;;4883386;29;20047;-76
2022/05/09 18:56:12;;;;;;;9.82;3.47;;;16.00;91.10;;;;;;4883276;29;20052;-77
2022/05/09 18:58:38;;;;;;;8.63;3.40;;;16.00;91.50;;;;;;4883540;29;20021;-77
2022/05/09 19:01:04;;;;;;;6.18;2.50;;;15.90;91.30;;;;;;4883360;29;20120;-79
2022/05/09 19:03:30;;;;;;;8.10;2.95;;;15.90;91.50;;;;;;4883910;29;20120;-78
2022/05/09 19:06:00;;;;;;;8.63;3.65;;;15.80;91.90;;;;;;4866367;29;20120;-75
2022/05/09 19:08:34;;;;;;;7.32;3.13;;;15.80;91.70;;;;;;4866489;29;20024;-77
2022/05/09 19:18:39;;;;;;;10.13;3.38;;;15.50;93.00;;;;;;5106816;23;20126;-78
2022/05/09 19:21:04;;;;;;;10.25;3.25;;;15.40;93.70;;;;;;4864541;29;20033;-76
2022/05/09 19:23:30;;;;;;;13.15;3.92;;;15.30;93.90;;;;;;4864478;29;20722;-81
2022/05/09 19:25:57;;;;;;;9.35;3.75;;;15.30;94.10;;;;;;4880989;29;20037;-77
2022/05/09 19:28:31;;;;;;;9.65;2.83;;;15.20;94.30;;;;;;4866325;29;20017;-77
2022/05/09 19:31:02;;;;;;;10.82;4.45;;;15.20;94.50;;;;;;4882711;29;20029;-75
2022/05/09 19:33:31;;;;;;;9.30;3.55;;;14.90;95.90;;;;;;4883203;29;20029;-81
2022/05/09 19:35:56;;;;;;;6.15;2.33;;;14.80;96.10;;;;;;4882974;29;20021;-77
2022/05/09 19:38:30;;;;;;;13.90;3.65;;;14.70;95.90;;;;;;4882770;29;20724;-77
2022/05/09 19:40:58;;;;;;;6.53;3.35;;;14.70;96.40;;;;;;4882664;29;20108;-76
2022/05/09 19:43:29;;;;;;;4.97;2.63;;;14.60;96.20;;;;;;4883179;29;20316;-78
2022/05/09 19:46:04;;;;;;;8.50;2.85;;;14.50;96.40;;;;;;4882792;29;20031;-76
2022/05/09 19:48:30;;;;;;;8.07;2.75;;;14.00;96.20;;;;;;4882197;29;20029;-78
2022/05/09 19:50:57;;;;;;;8.00;2.45;;;15.40;96.30;;;;;;4882622;29;20020;-76
2022/05/09 19:56:07;;;;;;;8.18;3.08;;;14.40;95.80;;;;;;4882252;29;20539;-79
2022/05/09 19:58:33;;;;;;;8.80;4.75;;;14.30;96.30;;;;;;4882213;29;20032;-76
2022/05/09 20:01:00;;;;;;;8.57;2.88;;;14.10;96.60;;;;;;4882044;29;20678;-75
2022/05/09 20:03:26;;;;;;;6.90;3.28;;;14.00;97.30;;;;;;4882544;29;20025;-79
2022/05/09 20:05:52;;;;;;;5.75;2.63;;;13.90;97.60;;;;;;4865411;29;20032;-78
2022/05/09 20:08:19;;;;;;;10.10;3.15;;;13.80;97.70;;;;;;4882114;29;20089;-79
2022/05/09 20:10:49;;;;;;;7.25;2.75;;;13.70;97.70;;;;;;4882235;29;20028;-79